Time;durP1;ratioP1;P1;durP2;ratioP2;P2;SDS_P1;SDS_P2;PMS_P1;PMS_P2;Temp;Humidity;BMP_temperature;BMP_pressure;BME280_temperature;BME280_humidity;BME280_pressure;Samples;Min_cycle;Max_cycle;Signal;HPM_P1;HPM_P2
2022/09/14 00:02:25;;;;;;;7.68;1.60;;;17.30;99.90;;;-144.05;60.15;125687.94;4865287;29;20568;-90
2022/09/14 00:04:54;;;;;;;3.63;1.30;;;17.30;99.90;;;-144.05;60.29;125687.94;4865085;29;20040;-88
2022/09/14 00:07:20;;;;;;;3.63;1.02;;;17.30;99.90;;;-144.05;60.50;125687.94;4864425;29;20160;-88
2022/09/14 00:09:56;;;;;;;;;;;;;;;;;;;;;
2022/09/14 00:12:32;;;;;;;5.03;1.10;;;17.20;99.90;;;-144.05;61.21;125687.94;4865887;29;20085;-91
2022/09/14 00:14:58;;;;;;;8.20;1.40;;;17.10;99.90;;;-144.05;61.25;125687.94;4868153;29;20034;-90
2022/09/14 00:17:27;;;;;;;3.92;1.17;;;17.10;99.90;;;-144.05;60.82;125687.94;4865511;29;20052;-90
2022/09/14 00:19:56;;;;;;;4.30;1.42;;;17.10;99.90;;;-144.05;60.87;125687.94;4879964;29;20026;-81
2022/09/14 00:22:42;;;;;;;4.63;1.20;;;17.10;99.90;;;-144.05;61.09;125687.94;4893303;29;20037;-93
2022/09/14 00:25:09;;;;;;;4.65;1.10;;;17.00;99.90;;;-144.05;60.54;125687.94;4865165;29;20045;-89
2022/09/14 00:27:35;;;;;;;4.70;1.20;;;17.10;99.90;;;-144.05;60.51;125687.94;4864478;29;20041;-89
2022/09/14 00:30:01;;;;;;;4.63;1.02;;;17.10;99.90;;;-144.05;60.43;125687.94;4879266;29;20040;-89
2022/09/14 00:32:27;;;;;;;9.73;1.42;;;17.10;99.90;;;-144.05;60.23;125687.94;4865130;29;20036;-86
2022/09/14 00:34:53;;;;;;;6.47;0.95;;;17.10;99.90;;;-144.05;60.09;125687.94;4864034;29;20057;-87
2022/09/14 00:37:26;;;;;;;5.15;1.27;;;17.10;99.90;;;-144.05;60.24;125687.94;4866289;29;20109;-90
2022/09/14 00:39:55;;;;;;;5.55;1.42;;;17.10;99.90;;;-144.05;60.47;125687.94;4864160;29;20069;-89
2022/09/14 00:42:21;;;;;;;4.57;1.30;;;17.00;99.90;;;-144.05;60.29;125687.94;4865711;29;20033;-90
2022/09/14 00:45:13;;;;;;;8.13;1.23;;;17.10;99.90;;;-144.05;59.60;125687.94;4863979;29;20033;-87
2022/09/14 00:47:59;;;;;;;;;;;;;;;;;;;;;
2022/09/14 00:50:26;;;;;;;7.38;1.45;;;17.00;99.90;;;-144.05;59.79;125687.94;4866564;29;20550;-90
2022/09/14 00:52:52;;;;;;;3.83;0.90;;;17.00;99.90;;;-144.05;59.81;125687.94;4867029;29;20029;-90
2022/09/14 00:55:22;;;;;;;4.88;1.55;;;17.10;99.90;;;-144.05;59.95;125687.94;4882398;29;20030;-89
2022/09/14 00:57:55;;;;;;;4.03;1.05;;;17.00;99.90;;;-144.05;59.96;125687.94;4865847;29;20522;-89
2022/09/14 01:00:28;;;;;;;2.83;0.80;;;17.00;99.90;;;-144.05;59.83;125687.94;4867298;29;20041;-90
2022/09/14 01:03:00;;;;;;;6.63;1.27;;;17.00;99.90;;;-144.05;59.79;125687.94;4864695;29;20053;-89
2022/09/14 01:06:34;;;;;;;8.93;1.30;;;17.00;99.90;;;-144.05;59.77;125687.94;4880208;29;20033;-86
2022/09/14 01:09:32;;;;;;;7.47;1.10;;;17.10;99.90;;;-144.05;58.99;125687.94;4866767;29;20129;-84
2022/09/14 01:12:42;;;;;;;4.15;0.90;;;17.00;99.90;;;-144.05;58.93;125687.94;4867393;29;20037;-88
2022/09/14 01:15:41;;;;;;;7.38;1.48;;;17.00;99.90;;;-144.05;58.94;125687.94;4866697;29;20038;-90
2022/09/14 01:18:50;;;;;;;4.55;1.15;;;17.00;99.90;;;-144.05;59.16;125687.94;4866055;29;20201;-86
2022/09/14 01:21:35;;;;;;;5.35;1.40;;;17.00;99.90;;;-144.05;58.90;125687.94;4875466;29;20117;-89
2022/09/14 01:24:26;;;;;;;4.28;1.30;;;17.00;99.90;;;-144.05;58.75;125687.94;4864856;29;20029;-88
2022/09/14 01:26:58;;;;;;;7.13;1.55;;;17.00;99.90;;;-144.05;58.54;125687.94;4864381;29;20042;-89
2022/09/14 01:29:49;;;;;;;6.05;1.30;;;17.00;99.90;;;-144.05;58.20;125687.94;4866374;29;20190;-89
2022/09/14 01:32:30;;;;;;;7.18;1.30;;;17.00;99.90;;;-144.05;58.16;125687.94;4866238;29;20035;-89
2022/09/14 01:35:49;;;;;;;6.40;1.38;;;16.90;99.90;;;-144.05;58.27;125687.94;4880993;29;20033;-88
2022/09/14 01:38:41;;;;;;;5.57;1.42;;;16.90;99.90;;;-144.05;58.29;125687.94;4872314;29;20045;-87
2022/09/14 01:41:29;;;;;;;12.40;2.38;;;16.90;99.90;;;-144.05;58.58;125687.94;4862965;29;20053;-88
2022/09/14 01:44:27;;;;;;;4.43;1.38;;;16.80;99.90;;;-144.05;58.75;125687.94;4878014;29;20085;-88
2022/09/14 01:47:13;;;;;;;5.68;1.20;;;16.80;99.90;;;-144.05;59.64;125687.94;4877737;29;20029;-88
2022/09/14 01:50:04;;;;;;;6.97;1.73;;;16.70;99.90;;;-144.05;60.20;125687.94;4861577;29;20578;-85
2022/09/14 01:53:03;;;;;;;;;;;;;;;;;;;;;
2022/09/14 01:56:14;;;;;;;7.00;1.27;;;16.50;99.90;;;-144.05;61.89;125687.94;4861941;29;20482;-89
2022/09/14 01:59:38;;;;;;;;;;;;;;;;;;;;;
2022/09/14 02:02:50;;;;;;;;;;;;;;;;;;;;;
2022/09/14 02:06:20;;;;;;;;;;;;;;;;;;;;;
2022/09/14 02:09:07;;;;;;;;;;;;;;;;;;;;;
2022/09/14 02:13:10;;;;;;;;;;;;;;;;;;;;;
2022/09/14 02:17:14;;;;;;;;;;;;;;;;;;;;;
2022/09/14 02:41:36;;;;;;;;;;;;;;;;;;;;;
2022/09/14 04:45:10;;;;;;;6.43;1.80;;;15.00;99.90;;;-144.05;75.32;125687.94;4898696;29;20164;-86
2022/09/14 04:47:36;;;;;;;5.85;1.67;;;15.00;99.90;;;-144.05;76.02;125687.94;4883999;29;20071;-87
2022/09/14 04:50:05;;;;;;;3.33;1.52;;;15.00;99.90;;;-144.05;76.44;125687.94;4885945;29;20478;-88
2022/09/14 04:52:31;;;;;;;8.20;2.20;;;15.00;99.90;;;-144.05;77.57;125687.94;4881413;29;20055;-86
2022/09/14 04:54:57;;;;;;;10.15;2.38;;;15.00;99.90;;;-144.05;77.73;125687.94;4880347;29;20089;-84
2022/09/14 04:57:23;;;;;;;12.70;2.15;;;15.00;99.90;;;-144.05;77.52;125687.94;4880172;29;20147;-84
2022/09/14 04:59:49;;;;;;;8.95;2.35;;;14.90;99.90;;;-144.05;77.24;125687.94;4879746;29;20044;-87
2022/09/14 05:02:17;;;;;;;11.90;2.33;;;15.00;99.90;;;-144.05;77.39;125687.94;4880243;29;20033;-88
2022/09/14 05:04:43;;;;;;;10.60;2.40;;;14.90;99.90;;;-144.05;77.47;125687.94;4880332;29;20039;-88
2022/09/14 05:07:09;;;;;;;9.13;2.67;;;14.90;99.90;;;-144.05;77.35;125687.94;4881939;29;20029;-85
2022/09/14 05:09:35;;;;;;;7.22;2.67;;;14.90;99.90;;;-144.05;77.19;125687.94;4880825;29;20029;-84
2022/09/14 05:12:07;;;;;;;11.75;2.90;;;14.80;99.90;;;-144.05;77.28;125687.94;4881478;29;20025;-85
2022/09/14 05:14:33;;;;;;;11.57;2.85;;;14.80;99.90;;;-144.05;76.73;125687.94;4880480;29;20033;-88
2022/09/14 05:17:03;;;;;;;4.63;2.10;;;14.70;99.90;;;-144.05;76.14;125687.94;4880708;29;20084;-86
2022/09/14 05:19:31;;;;;;;6.22;2.35;;;14.80;99.90;;;-144.05;76.08;125687.94;4879732;29;20033;-88
2022/09/14 05:22:05;;;;;;;6.95;2.05;;;14.80;99.90;;;-144.05;76.22;125687.94;4879478;29;20060;-86
2022/09/14 05:24:31;;;;;;;6.05;2.08;;;14.70;99.90;;;-144.05;76.08;125687.94;4881136;29;20029;-89
2022/09/14 05:27:00;;;;;;;9.02;2.30;;;14.70;99.90;;;-144.05;75.89;125687.94;4880908;29;20029;-88
2022/09/14 05:34:33;;;;;;;8.68;2.08;;;14.70;99.90;;;-144.05;76.19;125687.94;4862793;29;20417;-87
